Time;durP1;ratioP1;P1;durP2;ratioP2;P2;SDS_P1;SDS_P2;PMS_P1;PMS_P2;Temp;Humidity;BMP_temperature;BMP_pressure;BME280_temperature;BME280_humidity;BME280_pressure;Samples;Min_cycle;Max_cycle;Signal;HPM_P1;HPM_P2
2021/06/25 00:02:08;;;;;;;31.20;28.60;;;17.70;99.90;;;;;;4973066;28;20514;-66
2021/06/25 00:04:35;;;;;;;31.77;29.07;;;17.70;99.90;;;;;;4972881;28;20444;-66
2021/06/25 00:07:01;;;;;;;28.47;26.37;;;17.70;99.90;;;;;;4972818;28;20468;-66
2021/06/25 00:09:28;;;;;;;31.40;28.70;;;17.70;99.90;;;;;;4972811;28;20448;-66
2021/06/25 00:11:56;;;;;;;30.37;27.97;;;17.70;99.90;;;;;;4972752;28;20957;-66
2021/06/25 00:14:23;;;;;;;29.60;27.27;;;17.70;99.90;;;;;;4972753;28;20451;-66
2021/06/25 00:16:51;;;;;;;30.87;28.50;;;17.70;99.90;;;;;;4972546;28;20472;-66
2021/06/25 00:19:18;;;;;;;28.67;26.37;;;17.60;99.90;;;;;;4972574;28;20447;-66
2021/06/25 00:21:45;;;;;;;30.77;28.03;;;17.60;99.90;;;;;;4972545;28;20510;-66
2021/06/25 00:24:12;;;;;;;32.37;29.67;;;17.50;99.90;;;;;;4972348;28;20448;-65
2021/06/25 00:26:38;;;;;;;31.90;29.20;;;17.50;99.90;;;;;;4972413;28;20997;-66
2021/06/25 00:29:06;;;;;;;33.03;30.23;;;17.50;99.90;;;;;;4972561;28;20448;-66
2021/06/25 00:31:33;;;;;;;28.73;26.03;;;17.50;99.90;;;;;;4972460;28;20467;-66
2021/06/25 00:34:00;;;;;;;30.57;28.17;;;17.50;99.90;;;;;;4972231;28;20511;-65
2021/06/25 00:36:26;;;;;;;32.77;29.40;;;17.50;99.90;;;;;;4972493;28;20464;-66
2021/06/25 00:38:53;;;;;;;32.00;29.20;;;17.40;99.90;;;;;;4972477;28;20459;-66
2021/06/25 00:41:20;;;;;;;32.60;30.00;;;17.30;99.90;;;;;;4974754;28;20479;-66
2021/06/25 00:43:47;;;;;;;32.87;30.13;;;17.20;99.90;;;;;;4976008;28;20801;-67
2021/06/25 00:46:15;;;;;;;33.67;30.60;;;17.10;99.90;;;;;;4976122;28;20534;-66
2021/06/25 00:48:42;;;;;;;34.33;31.40;;;17.00;99.90;;;;;;4975968;28;20451;-66
2021/06/25 00:51:08;;;;;;;34.67;31.57;;;16.90;99.90;;;;;;4975985;28;20954;-65
2021/06/25 00:53:35;;;;;;;35.50;32.00;;;16.80;99.90;;;;;;4975667;28;20961;-65
2021/06/25 00:56:02;;;;;;;34.03;31.20;;;16.70;99.90;;;;;;4975836;28;20978;-65
2021/06/25 00:58:29;;;;;;;33.83;30.90;;;16.70;99.90;;;;;;4975812;28;20483;-65
2021/06/25 01:00:55;;;;;;;35.00;32.00;;;16.60;99.90;;;;;;4975856;28;20553;-65
2021/06/25 01:03:23;;;;;;;35.17;31.83;;;16.50;99.90;;;;;;4975607;28;20444;-66
2021/06/25 01:05:50;;;;;;;34.63;31.63;;;16.50;99.90;;;;;;4975603;28;20468;-66
2021/06/25 01:08:17;;;;;;;35.53;32.57;;;16.40;99.90;;;;;;4975621;28;20435;-66
2021/06/25 01:10:43;;;;;;;32.77;29.93;;;16.30;99.90;;;;;;4975648;28;20450;-66
2021/06/25 01:13:11;;;;;;;35.03;31.63;;;16.20;99.90;;;;;;4975626;28;20451;-66
2021/06/25 01:15:38;;;;;;;34.47;31.37;;;16.30;99.90;;;;;;4975331;28;21023;-66
2021/06/25 01:18:06;;;;;;;33.20;30.20;;;16.30;99.90;;;;;;4975633;28;20456;-66
2021/06/25 01:20:36;;;;;;;34.33;31.50;;;16.30;99.90;;;;;;4975341;28;20444;-66
2021/06/25 01:23:05;;;;;;;36.57;33.00;;;16.20;99.90;;;;;;4975449;28;20872;-65
2021/06/25 01:25:35;;;;;;;33.67;30.47;;;16.20;99.90;;;;;;4974909;28;20840;-65
2021/06/25 01:28:04;;;;;;;34.67;31.57;;;16.10;99.90;;;;;;4975415;28;20538;-65
2021/06/25 01:30:32;;;;;;;34.13;29.83;;;16.10;99.90;;;;;;4975357;28;20444;-66
2021/06/25 01:33:01;;;;;;;35.33;32.03;;;16.10;99.90;;;;;;4975194;28;20814;-68
2021/06/25 01:35:28;;;;;;;33.53;30.03;;;16.00;99.90;;;;;;4974861;28;20550;-66
2021/06/25 01:37:55;;;;;;;31.37;28.20;;;16.00;99.90;;;;;;4975172;28;20467;-66
2021/06/25 01:40:24;;;;;;;36.33;33.03;;;16.00;99.90;;;;;;4975146;28;20440;-66
2021/06/25 01:42:51;;;;;;;33.07;29.43;;;16.00;99.90;;;;;;4974950;28;20491;-65
2021/06/25 01:45:20;;;;;;;32.73;29.77;;;16.00;99.90;;;;;;4974754;28;20444;-66
2021/06/25 01:47:48;;;;;;;35.60;32.13;;;16.00;99.90;;;;;;4974933;28;20444;-66
2021/06/25 01:50:17;;;;;;;36.60;33.10;;;15.90;99.90;;;;;;4974990;28;20458;-65
2021/06/25 01:52:44;;;;;;;32.70;29.47;;;15.90;99.90;;;;;;4974143;28;20451;-66
2021/06/25 01:55:12;;;;;;;37.60;34.20;;;15.80;99.90;;;;;;4974534;28;20448;-65
2021/06/25 01:57:40;;;;;;;33.37;29.97;;;15.80;99.90;;;;;;4974780;28;20475;-65
2021/06/25 02:00:08;;;;;;;34.37;30.67;;;15.80;99.90;;;;;;4974749;28;20458;-66
2021/06/25 02:02:35;;;;;;;34.40;31.20;;;15.70;99.90;;;;;;4974526;28;20480;-66
2021/06/25 02:05:02;;;;;;;33.43;30.37;;;15.70;99.90;;;;;;4974571;28;20450;-65
2021/06/25 02:07:28;;;;;;;31.43;28.53;;;15.70;99.90;;;;;;4974553;28;20474;-65
2021/06/25 02:09:56;;;;;;;32.47;29.33;;;15.70;99.90;;;;;;4974531;28;20455;-66
2021/06/25 02:12:23;;;;;;;34.67;31.37;;;15.70;99.90;;;;;;4974581;28;20454;-65
2021/06/25 02:14:52;;;;;;;32.77;29.93;;;15.70;99.90;;;;;;4974196;28;20968;-65
2021/06/25 02:17:19;;;;;;;33.57;30.67;;;15.60;99.90;;;;;;4974256;28;20471;-65
2021/06/25 02:19:46;;;;;;;34.33;30.87;;;15.60;99.90;;;;;;4974402;28;20456;-66
2021/06/25 02:22:13;;;;;;;33.67;30.50;;;15.40;99.90;;;;;;4974197;28;20491;-66
2021/06/25 02:24:40;;;;;;;35.20;31.90;;;15.30;99.90;;;;;;4974161;28;20451;-66
2021/06/25 02:27:08;;;;;;;30.87;28.03;;;15.20;99.90;;;;;;4974058;28;20488;-65
2021/06/25 02:29:35;;;;;;;34.57;31.27;;;15.10;99.90;;;;;;4974264;28;20841;-65
2021/06/25 02:32:03;;;;;;;32.53;29.57;;;15.00;99.90;;;;;;4974247;28;20440;-65
2021/06/25 02:34:30;;;;;;;33.63;30.33;;;14.90;99.90;;;;;;4973914;28;20448;-65
2021/06/25 02:36:57;;;;;;;33.53;30.13;;;14.90;99.90;;;;;;4973928;28;20868;-65
2021/06/25 02:39:24;;;;;;;35.33;31.73;;;14.80;99.90;;;;;;4973964;28;20454;-65
2021/06/25 02:41:50;;;;;;;34.73;30.67;;;14.70;99.90;;;;;;4973820;28;20487;-65
2021/06/25 02:44:17;;;;;;;33.23;29.67;;;14.70;99.90;;;;;;4973783;28;20454;-64
2021/06/25 02:46:44;;;;;;;33.63;30.20;;;14.60;99.90;;;;;;4973777;28;20992;-64
2021/06/25 02:49:12;;;;;;;35.60;31.87;;;14.60;99.90;;;;;;4973761;28;20516;-65
2021/06/25 02:51:39;;;;;;;32.17;29.07;;;14.50;99.90;;;;;;4973707;28;20459;-65
2021/06/25 02:54:05;;;;;;;33.70;30.30;;;14.50;99.90;;;;;;4973653;28;20447;-64
2021/06/25 02:56:32;;;;;;;35.20;31.73;;;14.40;99.90;;;;;;4973572;28;20475;-64
2021/06/25 02:58:59;;;;;;;34.47;31.17;;;14.40;99.90;;;;;;4973677;28;20447;-65
2021/06/25 03:01:26;;;;;;;36.37;32.23;;;14.30;99.90;;;;;;4973978;28;20487;-65
2021/06/25 03:03:52;;;;;;;36.37;32.67;;;14.30;99.90;;;;;;4972619;28;20496;-64
2021/06/25 03:06:20;;;;;;;33.67;30.47;;;14.20;99.90;;;;;;4973646;28;20490;-65
2021/06/25 03:08:47;;;;;;;39.00;35.03;;;14.20;99.90;;;;;;4973668;28;20451;-65
2021/06/25 03:11:14;;;;;;;38.90;35.00;;;14.10;99.90;;;;;;4973824;28;20941;-65
2021/06/25 03:13:40;;;;;;;37.87;33.83;;;14.10;99.90;;;;;;4973359;28;20448;-64
2021/06/25 03:16:07;;;;;;;38.67;34.77;;;14.10;99.90;;;;;;4973404;28;20887;-64
2021/06/25 03:18:34;;;;;;;38.20;34.13;;;14.00;99.90;;;;;;4973617;28;20455;-65
2021/06/25 03:21:00;;;;;;;42.77;36.30;;;14.00;99.90;;;;;;4973342;28;20443;-65
2021/06/25 03:23:28;;;;;;;36.87;33.20;;;14.00;99.90;;;;;;4973297;28;20447;-65
2021/06/25 03:25:55;;;;;;;39.17;34.93;;;14.00;99.90;;;;;;4972903;28;20989;-65
2021/06/25 03:28:22;;;;;;;38.30;32.17;;;14.00;99.90;;;;;;4973181;28;20448;-65
2021/06/25 03:30:48;;;;;;;36.63;32.93;;;14.00;99.90;;;;;;4973099;28;20452;-65
2021/06/25 03:33:15;;;;;;;43.33;36.60;;;14.00;99.90;;;;;;4973128;28;20460;-65
2021/06/25 03:35:42;;;;;;;38.73;33.60;;;14.00;99.90;;;;;;4972755;28;21000;-65
2021/06/25 03:38:09;;;;;;;39.17;33.27;;;14.10;99.90;;;;;;4973121;28;20482;-65
2021/06/25 03:40:37;;;;;;;38.17;32.47;;;14.10;99.90;;;;;;4973149;28;20452;-65
2021/06/25 03:43:05;;;;;;;38.87;34.67;;;14.00;99.90;;;;;;4973120;28;21035;-65
2021/06/25 03:45:31;;;;;;;41.33;32.57;;;14.10;99.90;;;;;;4972643;28;20472;-65
2021/06/25 03:47:58;;;;;;;38.30;33.00;;;14.10;99.90;;;;;;4972829;28;20443;-65
2021/06/25 03:50:25;;;;;;;40.20;33.10;;;14.20;99.90;;;;;;4973168;28;20451;-65
2021/06/25 03:52:52;;;;;;;37.67;32.07;;;14.20;99.90;;;;;;4972804;28;20463;-64
2021/06/25 03:55:18;;;;;;;40.43;36.10;;;14.30;99.90;;;;;;4972689;28;20462;-65
2021/06/25 03:57:47;;;;;;;36.63;32.33;;;14.30;99.90;;;;;;4972856;28;21053;-67
2021/06/25 04:00:16;;;;;;;38.67;34.50;;;14.40;99.90;;;;;;4972773;28;20963;-65
2021/06/25 04:02:43;;;;;;;36.30;31.13;;;14.40;99.90;;;;;;4972880;28;20480;-65
2021/06/25 04:05:11;;;;;;;36.73;32.83;;;14.50;99.90;;;;;;4972582;28;20444;-65
2021/06/25 04:07:38;;;;;;;36.00;30.67;;;14.50;99.90;;;;;;4972793;28;20817;-65
2021/06/25 04:10:08;;;;;;;35.10;31.40;;;14.50;99.90;;;;;;4972666;28;20930;-65
2021/06/25 04:12:35;;;;;;;37.63;33.83;;;14.50;99.90;;;;;;4972657;28;20448;-64
2021/06/25 04:15:04;;;;;;;36.77;33.07;;;14.50;99.90;;;;;;4973016;28;20452;-65
2021/06/25 04:17:31;;;;;;;36.00;31.63;;;14.60;99.90;;;;;;4976605;28;20456;-65
2021/06/25 04:19:58;;;;;;;36.20;32.90;;;14.60;99.90;;;;;;4976575;28;20948;-65
2021/06/25 04:22:24;;;;;;;36.03;32.33;;;14.60;99.90;;;;;;4976341;28;20479;-65
2021/06/25 04:24:51;;;;;;;35.40;31.67;;;14.60;99.90;;;;;;4976229;28;20451;-64
2021/06/25 04:27:18;;;;;;;37.63;33.73;;;14.60;99.90;;;;;;4976282;28;20480;-65
2021/06/25 04:29:46;;;;;;;35.07;31.57;;;14.60;99.90;;;;;;4976413;28;20471;-65
2021/06/25 04:32:16;;;;;;;38.07;34.17;;;14.60;99.90;;;;;;4976225;28;20950;-65
2021/06/25 04:34:43;;;;;;;37.53;33.73;;;14.70;99.90;;;;;;4976244;28;20506;-65
2021/06/25 04:37:09;;;;;;;36.10;32.47;;;14.70;99.90;;;;;;4976338;28;20833;-65
2021/06/25 04:39:36;;;;;;;35.67;31.87;;;14.70;99.90;;;;;;4976368;28;20451;-64
2021/06/25 04:42:04;;;;;;;36.13;32.37;;;14.70;99.90;;;;;;4976096;28;20483;-65
2021/06/25 04:44:30;;;;;;;35.27;31.67;;;14.80;99.90;;;;;;4975853;28;20946;-65
2021/06/25 04:46:57;;;;;;;36.70;32.90;;;14.80;99.90;;;;;;4975855;28;20475;-64
2021/06/25 04:49:25;;;;;;;33.57;29.90;;;14.90;99.90;;;;;;4976200;28;20444;-65
2021/06/25 04:51:52;;;;;;;36.10;32.30;;;14.90;99.90;;;;;;4975912;28;20801;-65
2021/06/25 04:54:18;;;;;;;37.90;34.10;;;14.90;99.90;;;;;;4975746;28;20478;-64
2021/06/25 04:56:45;;;;;;;35.30;31.63;;;15.00;99.90;;;;;;4975760;28;20989;-65
2021/06/25 04:59:12;;;;;;;36.67;33.00;;;15.00;99.90;;;;;;4975787;28;20447;-65
2021/06/25 05:01:38;;;;;;;37.37;33.83;;;15.20;99.90;;;;;;4975721;28;20447;-65
2021/06/25 05:04:05;;;;;;;32.80;29.50;;;15.20;99.90;;;;;;4975571;28;20466;-65
2021/06/25 05:06:33;;;;;;;32.73;29.63;;;15.30;99.90;;;;;;4975680;28;20463;-65
2021/06/25 05:09:00;;;;;;;36.27;32.67;;;15.30;99.90;;;;;;4975661;28;20451;-65
2021/06/25 05:11:27;;;;;;;36.83;33.00;;;15.50;99.90;;;;;;4975677;28;20452;-65
2021/06/25 05:13:53;;;;;;;36.87;33.30;;;15.50;99.90;;;;;;4975417;28;20466;-64
2021/06/25 05:16:20;;;;;;;38.03;34.17;;;15.60;99.90;;;;;;4975445;28;20463;-66
2021/06/25 05:18:47;;;;;;;37.20;33.73;;;15.70;99.90;;;;;;4975533;28;20456;-65
2021/06/25 05:21:14;;;;;;;39.37;35.97;;;15.80;99.90;;;;;;4975419;28;20448;-65
2021/06/25 05:23:42;;;;;;;45.83;37.40;;;15.90;99.90;;;;;;4975218;28;20487;-65
2021/06/25 05:26:08;;;;;;;41.30;37.57;;;16.00;99.90;;;;;;4975230;28;20857;-65
2021/06/25 05:28:35;;;;;;;39.93;36.43;;;16.10;99.90;;;;;;4974528;28;20444;-64
2021/06/25 05:31:02;;;;;;;39.17;35.47;;;16.20;99.90;;;;;;4975368;28;20815;-64
2021/06/25 05:33:28;;;;;;;39.60;35.90;;;16.30;99.90;;;;;;4975176;28;20791;-64
2021/06/25 05:35:55;;;;;;;40.70;37.27;;;16.40;99.90;;;;;;4974837;28;20494;-65
2021/06/25 05:38:22;;;;;;;43.13;39.13;;;16.50;99.90;;;;;;4975094;28;20448;-64
2021/06/25 05:40:50;;;;;;;40.37;36.73;;;16.50;99.90;;;;;;4975089;28;20439;-65
2021/06/25 05:43:17;;;;;;;42.30;38.43;;;16.60;99.90;;;;;;4975089;28;20538;-65
2021/06/25 05:45:44;;;;;;;43.87;40.07;;;16.70;99.90;;;;;;4974731;28;20459;-65
2021/06/25 05:48:11;;;;;;;43.60;39.60;;;16.80;99.90;;;;;;4974913;28;20455;-65
2021/06/25 05:50:38;;;;;;;44.47;40.57;;;16.90;99.90;;;;;;4974939;28;20455;-65
2021/06/25 05:53:05;;;;;;;47.17;42.50;;;16.90;99.90;;;;;;4974916;28;20777;-65
2021/06/25 05:55:32;;;;;;;43.23;39.30;;;17.00;99.90;;;;;;4974601;28;20472;-65
2021/06/25 05:58:00;;;;;;;43.57;39.50;;;17.20;99.90;;;;;;4974832;28;20471;-65
2021/06/25 06:00:27;;;;;;;43.80;39.40;;;17.30;99.90;;;;;;4974724;28;20444;-65
2021/06/25 06:02:54;;;;;;;44.80;40.80;;;17.40;99.90;;;;;;4974450;28;20484;-65
2021/06/25 06:05:21;;;;;;;45.47;40.90;;;17.60;99.90;;;;;;4974431;28;20448;-65
2021/06/25 06:07:47;;;;;;;43.27;39.40;;;17.70;99.90;;;;;;4974601;28;20933;-65
2021/06/25 06:10:16;;;;;;;39.70;36.30;;;17.80;99.90;;;;;;4974480;28;20455;-65
2021/06/25 06:12:43;;;;;;;39.87;36.50;;;17.90;99.90;;;;;;4974611;28;20576;-65
2021/06/25 06:15:12;;;;;;;41.37;37.67;;;18.00;99.90;;;;;;4974409;28;20544;-65
2021/06/25 06:17:42;;;;;;;41.03;37.20;;;17.90;99.90;;;;;;4974577;28;20474;-65
2021/06/25 06:20:12;;;;;;;40.43;36.93;;;18.00;99.90;;;;;;4974370;28;20451;-65
2021/06/25 06:31:16;;;;;;;35.73;32.43;;;18.20;99.90;;;;;;4974202;28;20430;-65
2021/06/25 06:33:46;;;;;;;37.87;34.77;;;18.30;99.90;;;;;;4974217;28;20451;-65
2021/06/25 06:36:20;;;;;;;37.97;34.87;;;18.30;99.90;;;;;;4973864;28;20890;-65
2021/06/25 06:38:46;;;;;;;35.47;32.67;;;18.30;99.90;;;;;;4973949;28;21138;-64
2021/06/25 06:41:14;;;;;;;36.60;33.40;;;18.40;99.90;;;;;;4973866;28;20458;-65
2021/06/25 06:43:43;;;;;;;36.40;33.70;;;18.50;99.90;;;;;;4973821;28;20847;-65
2021/06/25 06:46:11;;;;;;;37.70;34.77;;;18.50;99.90;;;;;;4973675;28;20476;-65
2021/06/25 06:48:38;;;;;;;33.60;31.20;;;18.60;99.90;;;;;;4973934;28;20952;-65
2021/06/25 06:51:05;;;;;;;36.33;33.53;;;18.80;99.90;;;;;;4973952;28;20448;-65
2021/06/25 06:53:32;;;;;;;34.53;31.93;;;18.90;99.90;;;;;;4973719;28;20447;-65
2021/06/25 06:55:59;;;;;;;31.00;28.83;;;19.10;99.90;;;;;;4973476;28;20473;-65
2021/06/25 06:58:26;;;;;;;32.67;30.20;;;19.20;99.90;;;;;;4973630;28;20448;-65
2021/06/25 07:00:53;;;;;;;31.00;28.30;;;19.30;99.90;;;;;;4973553;28;20953;-65
2021/06/25 07:03:21;;;;;;;31.10;28.77;;;19.50;99.90;;;;;;4973595;28;20506;-65
2021/06/25 07:05:48;;;;;;;30.00;27.90;;;19.60;99.90;;;;;;4973395;28;20828;-65
2021/06/25 07:08:15;;;;;;;30.23;28.03;;;19.60;99.90;;;;;;4973485;28;20836;-65
2021/06/25 07:10:41;;;;;;;30.60;28.57;;;19.60;99.70;;;;;;4973641;28;20475;-65
2021/06/25 07:13:08;;;;;;;31.93;29.63;;;19.70;99.40;;;;;;4973447;28;20451;-65
2021/06/25 07:15:36;;;;;;;31.57;29.17;;;19.70;99.00;;;;;;4973150;28;20981;-65
2021/06/25 07:18:03;;;;;;;30.40;28.40;;;19.80;98.20;;;;;;4973341;28;20487;-65
2021/06/25 07:20:31;;;;;;;32.30;30.00;;;19.90;98.10;;;;;;4973451;28;20474;-64
2021/06/25 07:22:58;;;;;;;31.87;29.40;;;19.90;97.70;;;;;;4973150;28;20490;-65
2021/06/25 07:25:25;;;;;;;33.07;30.87;;;19.90;97.90;;;;;;4972821;28;20471;-65
2021/06/25 07:27:52;;;;;;;31.70;29.07;;;19.90;97.40;;;;;;4973357;28;20452;-65
2021/06/25 07:30:19;;;;;;;30.43;28.20;;;20.10;97.90;;;;;;4973156;28;20452;-65
2021/06/25 07:32:46;;;;;;;31.67;29.67;;;20.10;97.90;;;;;;4973020;28;20448;-65
2021/06/25 07:35:13;;;;;;;30.00;28.00;;;20.30;97.30;;;;;;4972842;28;20444;-65
2021/06/25 07:37:41;;;;;;;35.20;31.90;;;20.30;97.50;;;;;;4972904;28;20455;-65
2021/06/25 07:40:09;;;;;;;31.73;29.13;;;20.50;97.70;;;;;;4972873;28;20444;-65
2021/06/25 07:42:36;;;;;;;31.70;29.60;;;20.50;95.80;;;;;;4972846;28;20535;-65
2021/06/25 07:45:07;;;;;;;31.03;28.83;;;20.50;95.40;;;;;;4972826;28;20813;-65
2021/06/25 07:47:34;;;;;;;32.87;30.43;;;20.60;95.70;;;;;;4972982;28;20538;-64
2021/06/25 07:50:01;;;;;;;30.33;28.13;;;20.80;95.50;;;;;;4972384;28;21012;-65
2021/06/25 07:52:28;;;;;;;30.20;28.27;;;20.90;95.40;;;;;;4972854;28;20444;-65
2021/06/25 07:54:56;;;;;;;32.83;30.27;;;20.80;94.20;;;;;;4972695;28;20451;-65
2021/06/25 07:57:22;;;;;;;30.10;27.93;;;20.60;93.90;;;;;;4972747;28;20973;-65
2021/06/25 07:59:49;;;;;;;31.40;29.17;;;20.50;93.90;;;;;;4972902;28;20518;-65
2021/06/25 08:02:16;;;;;;;29.27;27.33;;;20.60;94.50;;;;;;4972801;28;20443;-65
2021/06/25 08:04:45;;;;;;;31.13;28.57;;;20.70;95.00;;;;;;4972435;28;20490;-65
2021/06/25 08:07:12;;;;;;;32.63;30.33;;;20.80;95.10;;;;;;4972673;28;20471;-65
2021/06/25 08:09:39;;;;;;;32.23;30.03;;;21.00;93.80;;;;;;4972633;28;20607;-65
2021/06/25 08:12:09;;;;;;;30.80;28.87;;;21.10;93.60;;;;;;4972741;28;20448;-65
2021/06/25 08:14:36;;;;;;;32.23;29.93;;;21.40;93.90;;;;;;4972412;28;20440;-65
2021/06/25 08:17:02;;;;;;;31.17;29.13;;;21.60;92.70;;;;;;4972536;28;20470;-65
2021/06/25 08:19:29;;;;;;;31.23;29.33;;;21.80;92.80;;;;;;4972593;28;21063;-65
2021/06/25 08:21:56;;;;;;;32.23;29.93;;;22.10;92.50;;;;;;4972517;28;20459;-65
2021/06/25 08:24:23;;;;;;;31.57;29.23;;;22.40;91.40;;;;;;4972300;28;20838;-65
2021/06/25 08:26:50;;;;;;;34.73;32.43;;;22.60;90.70;;;;;;4972476;28;21005;-65
2021/06/25 08:29:18;;;;;;;35.13;32.67;;;22.80;90.60;;;;;;4972519;28;20456;-65
2021/06/25 08:31:45;;;;;;;32.57;30.43;;;22.90;87.30;;;;;;4972721;28;20451;-65
2021/06/25 08:34:12;;;;;;;31.30;29.27;;;23.20;86.70;;;;;;4972228;28;20455;-65
2021/06/25 08:36:39;;;;;;;30.70;28.53;;;23.30;83.10;;;;;;4972527;28;20476;-65
2021/06/25 08:39:06;;;;;;;31.13;29.20;;;23.40;82.50;;;;;;4972477;28;20469;-65
2021/06/25 08:41:34;;;;;;;32.63;30.33;;;23.50;81.20;;;;;;4972470;28;20451;-65
2021/06/25 08:44:01;;;;;;;28.20;26.50;;;23.80;77.60;;;;;;4972399;28;20483;-65
2021/06/25 08:46:30;;;;;;;31.40;29.20;;;24.10;74.60;;;;;;4972380;28;20471;-65
2021/06/25 08:48:58;;;;;;;30.80;28.60;;;24.40;73.20;;;;;;4972313;28;20510;-65
2021/06/25 08:51:25;;;;;;;28.60;26.90;;;24.70;70.70;;;;;;4972455;28;20462;-65
2021/06/25 08:53:52;;;;;;;30.13;28.27;;;25.00;69.10;;;;;;4972376;28;20452;-65
2021/06/25 08:56:20;;;;;;;30.23;28.23;;;25.00;65.70;;;;;;4972105;28;20468;-65
2021/06/25 08:58:47;;;;;;;30.77;29.07;;;25.40;65.50;;;;;;4972303;28;20444;-65
2021/06/25 09:01:15;;;;;;;29.50;27.70;;;25.60;62.30;;;;;;4972985;28;20443;-65
2021/06/25 09:03:52;;;;;;;29.80;28.20;;;25.80;61.00;;;;;;4975762;28;20490;-65
2021/06/25 09:06:18;;;;;;;30.63;28.77;;;26.30;59.00;;;;;;4975387;28;20474;-65
2021/06/25 09:08:45;;;;;;;29.67;27.67;;;26.00;57.70;;;;;;4975674;28;20443;-65
2021/06/25 09:11:23;;;;;;;28.40;26.87;;;26.10;57.90;;;;;;4975719;28;20833;-65
2021/06/25 09:13:57;;;;;;;30.10;28.33;;;26.20;56.10;;;;;;4975793;28;20457;-65
2021/06/25 09:16:25;;;;;;;30.50;28.60;;;26.20;56.80;;;;;;4975343;28;21010;-66
2021/06/25 09:18:58;;;;;;;30.10;28.27;;;26.40;55.30;;;;;;4975444;28;20447;-65
2021/06/25 09:21:25;;;;;;;29.77;27.87;;;26.00;55.50;;;;;;4975429;28;20448;-65
2021/06/25 09:23:52;;;;;;;28.70;27.10;;;26.20;56.00;;;;;;4975474;28;20486;-65
2021/06/25 09:26:21;;;;;;;29.57;27.77;;;26.20;54.10;;;;;;4975048;28;20479;-66
2021/06/25 09:28:49;;;;;;;30.60;28.47;;;26.40;53.40;;;;;;4975314;28;20448;-65
2021/06/25 09:31:19;;;;;;;32.57;30.33;;;26.80;53.20;;;;;;4975237;28;20945;-65
2021/06/25 09:33:47;;;;;;;30.53;28.53;;;26.70;52.40;;;;;;4975279;28;20444;-66
2021/06/25 09:36:22;;;;;;;29.87;28.07;;;26.50;52.20;;;;;;4974899;28;20905;-65
2021/06/25 09:38:58;;;;;;;30.83;29.00;;;26.30;52.00;;;;;;4975351;28;20440;-65
2021/06/25 09:41:25;;;;;;;29.50;27.90;;;26.40;52.20;;;;;;4975094;28;20443;-65
2021/06/25 09:43:57;;;;;;;27.80;26.30;;;26.60;53.00;;;;;;4974886;28;20860;-65
2021/06/25 09:46:31;;;;;;;30.03;28.33;;;27.00;52.70;;;;;;4974866;28;20829;-66
2021/06/25 09:49:00;;;;;;;29.97;27.80;;;27.00;50.90;;;;;;4975023;28;20450;-65
2021/06/25 09:51:30;;;;;;;27.50;26.10;;;26.50;50.30;;;;;;4974890;28;20443;-65
2021/06/25 09:54:04;;;;;;;28.87;27.47;;;26.60;51.70;;;;;;4974982;28;20703;-65
2021/06/25 09:56:32;;;;;;;29.87;27.43;;;26.80;51.40;;;;;;4974500;28;20472;-65
2021/06/25 09:59:23;;;;;;;28.70;27.10;;;26.20;50.50;;;;;;4974951;28;20543;-65
2021/06/25 10:01:48;;;;;;;27.77;26.17;;;26.10;51.00;;;;;;4974850;28;20542;-65
2021/06/25 10:04:15;;;;;;;30.10;28.00;;;26.30;50.50;;;;;;4974742;28;20570;-66
2021/06/25 10:06:43;;;;;;;28.33;26.90;;;26.50;49.60;;;;;;4974657;28;20224;-65
2021/06/25 10:09:10;;;;;;;30.13;28.10;;;26.50;49.20;;;;;;4974706;28;20828;-65
2021/06/25 10:11:36;;;;;;;28.87;27.30;;;26.90;49.70;;;;;;4983474;28;20438;-65
2021/06/25 10:14:05;;;;;;;31.23;29.33;;;26.70;49.10;;;;;;4992679;28;20458;-65
2021/06/25 10:16:31;;;;;;;30.80;29.03;;;26.70;48.10;;;;;;4993740;28;20540;-65
2021/06/25 10:19:00;;;;;;;31.83;29.93;;;26.70;48.60;;;;;;4994001;28;20454;-66
2021/06/25 10:21:30;;;;;;;28.43;26.83;;;26.60;47.40;;;;;;4993503;28;20570;-66
2021/06/25 10:23:59;;;;;;;30.10;28.40;;;26.90;48.10;;;;;;4993716;28;20565;-65
2021/06/25 10:26:26;;;;;;;28.70;27.03;;;27.50;47.60;;;;;;4993409;28;20482;-66
2021/06/25 10:28:54;;;;;;;28.67;27.10;;;27.60;46.90;;;;;;4992709;28;20443;-65
2021/06/25 10:31:24;;;;;;;29.10;27.40;;;27.90;46.50;;;;;;4993551;28;20454;-66
2021/06/25 10:33:52;;;;;;;29.57;27.73;;;28.20;46.10;;;;;;4993587;28;20860;-65
2021/06/25 10:36:22;;;;;;;29.20;27.70;;;28.50;44.60;;;;;;4993292;28;20987;-65
2021/06/25 10:38:50;;;;;;;28.67;27.17;;;28.80;45.50;;;;;;4993560;28;20542;-65
2021/06/25 10:41:18;;;;;;;29.70;27.90;;;28.90;45.50;;;;;;4993469;28;20439;-66
2021/06/25 10:43:49;;;;;;;30.60;28.70;;;28.80;43.50;;;;;;4993318;28;20482;-65
2021/06/25 10:46:34;;;;;;;29.90;28.10;;;28.80;43.30;;;;;;4993249;28;20817;-65
2021/06/25 10:49:06;;;;;;;30.53;28.93;;;28.20;44.00;;;;;;4992670;28;20462;-65
2021/06/25 10:51:35;;;;;;;30.40;28.80;;;28.20;43.80;;;;;;4993195;28;20449;-66
2021/06/25 10:54:18;;;;;;;28.70;27.20;;;27.80;44.20;;;;;;4993077;28;20502;-65
2021/06/25 10:57:09;;;;;;;30.03;28.37;;;27.60;44.70;;;;;;4992973;28;20557;-65
2021/06/25 10:59:45;;;;;;;29.00;27.50;;;27.80;45.50;;;;;;4993110;28;20443;-65
2021/06/25 11:02:12;;;;;;;28.87;27.17;;;28.40;44.30;;;;;;4992908;28;20447;-65
2021/06/25 11:04:43;;;;;;;28.80;27.20;;;28.70;44.10;;;;;;4992560;28;20863;-65
2021/06/25 11:07:13;;;;;;;29.17;27.57;;;29.30;43.90;;;;;;4993035;28;20534;-65
2021/06/25 11:10:03;;;;;;;29.63;27.93;;;29.80;42.80;;;;;;4992808;28;20821;-65
2021/06/25 11:12:36;;;;;;;29.87;28.20;;;30.10;42.00;;;;;;4992748;28;20944;-66
2021/06/25 11:15:31;;;;;;;29.90;28.30;;;30.20;41.70;;;;;;4992560;28;20450;-65
2021/06/25 11:17:58;;;;;;;30.00;28.30;;;29.90;41.80;;;;;;4987125;28;20458;-65
2021/06/25 11:20:27;;;;;;;31.77;29.43;;;29.80;41.90;;;;;;4992683;28;20439;-65
2021/06/25 11:22:57;;;;;;;30.20;28.40;;;29.50;41.50;;;;;;4992656;28;20473;-65
2021/06/25 11:25:45;;;;;;;27.97;26.40;;;29.30;42.60;;;;;;4991208;28;20553;-66
2021/06/25 11:28:21;;;;;;;28.83;27.30;;;29.50;43.20;;;;;;5015695;23;20498;-68
2021/06/25 11:31:22;;;;;;;29.57;27.93;;;29.60;42.10;;;;;;4975642;28;20777;-65
2021/06/25 11:34:06;;;;;;;30.07;28.33;;;29.80;42.10;;;;;;4973189;28;20439;-65
2021/06/25 11:36:39;;;;;;;29.67;28.20;;;30.40;41.00;;;;;;4972874;28;21075;-65
2021/06/25 11:39:15;;;;;;;28.80;27.40;;;31.40;40.10;;;;;;4973242;28;20474;-66
2021/06/25 11:41:55;;;;;;;29.00;27.60;;;32.00;39.20;;;;;;4973188;28;20812;-65
2021/06/25 11:44:27;;;;;;;30.60;28.83;;;32.20;38.10;;;;;;4972798;28;20490;-64
2021/06/25 11:47:00;;;;;;;28.60;27.17;;;32.70;37.00;;;;;;4973063;28;20475;-66
2021/06/25 11:49:29;;;;;;;29.77;28.27;;;32.80;37.30;;;;;;4972953;28;20456;-66
2021/06/25 11:51:57;;;;;;;27.40;26.00;;;33.20;35.80;;;;;;4972929;28;20474;-66
2021/06/25 11:54:24;;;;;;;28.90;27.50;;;33.70;36.00;;;;;;4973011;28;20482;-65
2021/06/25 11:56:52;;;;;;;30.00;28.40;;;33.50;35.30;;;;;;4972797;28;20987;-66
2021/06/25 11:59:19;;;;;;;30.10;28.60;;;35.10;35.20;;;;;;4972780;28;20995;-66
2021/06/25 12:01:55;;;;;;;31.90;30.20;;;35.50;33.70;;;;;;4972807;28;20212;-66
2021/06/25 12:04:32;;;;;;;31.47;29.87;;;34.60;33.20;;;;;;4972823;28;20223;-66
2021/06/25 12:07:00;;;;;;;29.77;28.27;;;33.90;33.50;;;;;;4972339;28;20844;-66
2021/06/25 12:09:48;;;;;;;29.15;27.67;;;36.40;33.60;;;;;;4972693;28;20199;-66
2021/06/25 12:12:27;;;;;;;28.92;27.52;;;38.80;31.20;;;;;;4972724;28;20230;-66
2021/06/25 12:14:56;;;;;;;29.15;27.75;;;39.60;28.90;;;;;;4972505;28;20208;-66
2021/06/25 12:17:26;;;;;;;30.02;28.52;;;39.80;28.30;;;;;;4972654;28;20220;-66
2021/06/25 12:20:04;;;;;;;32.75;30.75;;;40.60;27.50;;;;;;4972304;28;20211;-67
2021/06/25 12:22:30;;;;;;;30.13;28.73;;;40.70;27.30;;;;;;4972812;28;20239;-67
2021/06/25 12:24:58;;;;;;;30.95;29.10;;;41.80;26.20;;;;;;4972426;28;20593;-66
2021/06/25 12:27:40;;;;;;;30.17;28.83;;;41.70;25.80;;;;;;4972496;28;20291;-66
2021/06/25 12:30:11;;;;;;;29.77;28.38;;;41.70;25.90;;;;;;4972861;28;20251;-66
2021/06/25 12:32:39;;;;;;;28.85;27.52;;;41.90;25.40;;;;;;4972293;28;20200;-66
2021/06/25 12:35:07;;;;;;;30.20;28.70;;;42.70;25.00;;;;;;4972438;28;20206;-67
2021/06/25 12:37:49;;;;;;;31.60;29.88;;;44.50;24.30;;;;;;4975133;28;20689;-67
2021/06/25 12:40:41;;;;;;;30.33;28.83;;;46.00;23.20;;;;;;4976369;28;20562;-66
2021/06/25 12:43:08;;;;;;;30.00;28.52;;;47.00;22.30;;;;;;4976475;28;20207;-67
2021/06/25 12:45:40;;;;;;;30.08;28.67;;;43.30;22.80;;;;;;4976000;28;20231;-66